Flight Track Log - Related Links

Times and Time Zones

All times are in EST time to prevent confusion due to time zone crossing. See the SKP53 flight status page for this flight to view local times or setup timezone preferences in your user account.

Time Position Orientation Groundspeed Altitude Reporting Facility
EST Latitude Longitude Course Direction KTS MPH feet Rate Location/Type
Thu 10:26:07 PM -17.6750 141.2045 80° East 19,000  Level Aus ATC (Calculated)
Thu 10:29:00 PM -17.6405 141.4083 80° East  Level FlightAware Approximate
Thu 10:30:00 PM -17.6285 141.4790 80° East  Level FlightAware Approximate
Thu 10:31:00 PM -17.6165 141.5496 80° East  Level FlightAware Approximate
Thu 10:32:00 PM -17.6044 141.6203 80° East  Level FlightAware Approximate
Thu 10:33:00 PM -17.5923 141.6909 80° East  Level FlightAware Approximate
Thu 10:34:00 PM -17.5802 141.7615 80° East  Level FlightAware Approximate
Thu 10:35:00 PM -17.5681 141.8322 80° East  Level FlightAware Approximate
Thu 10:36:00 PM -17.5559 141.9028 80° East  Level FlightAware Approximate
Thu 10:37:00 PM -17.5438 141.9734 80° East  Level FlightAware Approximate
Thu 10:38:00 PM -17.5315 142.0439 80° East  Level FlightAware Approximate
Thu 10:39:00 PM -17.5193 142.1145 80° East  Level FlightAware Approximate
Thu 10:40:00 PM -17.5071 142.1851 80° East  Level FlightAware Approximate
Thu 10:40:00 PM -17.4998 142.1927 97° East 19,000  Level Aus ATC (Calculated)
Thu 10:41:00 PM -17.4883 142.2612 80° East  Level FlightAware Approximate
Thu 10:42:00 PM -17.4767 142.3298 80° East  Level FlightAware Approximate
Thu 10:43:00 PM -17.4652 142.3984 80° East  Level FlightAware Approximate
Thu 10:44:00 PM -17.4536 142.4669 80° East  Level FlightAware Approximate
Thu 10:44:03 PM -17.5010 142.2023 80° East 237 273 17,600  Level Aus ATC (RADAR)
Thu 10:44:43 PM -17.4938 142.2470 80° East 235 270 18,000 503 Climbing Aus ATC (RADAR)
Thu 10:46:38 PM -17.4719 142.3748 80° East 238 274 18,900 419 Climbing Aus ATC (RADAR)
Thu 10:46:52 PM -17.4682 142.3921 77° East 243 280 18,900 102 Level Aus ATC (RADAR)
Thu 10:47:37 PM -17.4582 142.4451 79° East 249 287 19,000 80 Climbing Aus ATC (RADAR)
Thu 10:48:07 PM -17.4531 142.4823 82° East 258 297 19,000 494 Level Aus ATC (RADAR)
Thu 10:49:02 PM -17.4423 142.5464 80° East 238 274 19,700 771 Climbing Aus ATC (RADAR)
Thu 10:49:17 PM -17.4393 142.5631 79° East 236 272 19,900 764 Climbing Aus ATC (RADAR)
Thu 10:49:57 PM -17.4313 142.6068 79° East 228 262 20,400 571 Climbing Aus ATC (RADAR)
Thu 10:51:02 PM -17.4201 142.6749 80° East 221 254 20,900 375 Climbing Aus ATC (RADAR)
Thu 10:51:17 PM -17.4169 142.6906 78° East 221 254 20,900  Level Aus ATC (RADAR)
Thu 10:51:57 PM -17.4094 142.7350 80° East 233 268 20,900  Level Aus ATC (RADAR)
Thu 10:52:42 PM -17.3999 142.7876 79° East 248 285 20,900  Level Aus ATC (RADAR)
Thu 10:53:22 PM -17.3916 142.8352 80° East 253 291 20,900  Level Aus ATC (RADAR)
Thu 10:54:12 PM -17.3806 142.8964 79° East 259 298 20,900  Level Aus ATC (RADAR)
Thu 10:54:47 PM -17.3746 142.9400 82° East 260 299 20,900  Level Aus ATC (RADAR)
Thu 10:56:02 PM -17.3575 143.0323 79° East 260 299 20,900  Level Aus ATC (RADAR)
Thu 10:56:21 PM -17.3527 143.0570 78° East 260 299 20,900  Level Aus ATC (RADAR)
Thu 10:57:01 PM -17.3438 143.1062 79° East 259 298 20,900  Level Aus ATC (RADAR)
Thu 10:57:41 PM -17.3358 143.1562 81° East 262 302 20,900  Level Aus ATC (RADAR)
Thu 10:58:21 PM -17.3262 143.2055 78° East 261 300 20,900  Level Aus ATC (RADAR)
Thu 10:59:16 PM -17.3140 143.2734 79° East 259 298 20,900  Level Aus ATC (RADAR)
Thu 10:59:51 PM -17.3063 143.3168 79° East 260 299 20,900  Level Aus ATC (RADAR)
Thu 11:00:31 PM -17.2944 143.3659 76° East 263 303 20,900  Level Aus ATC (RADAR)
Thu 11:01:31 PM -17.2732 143.4389 73° East 264 304 20,900  Level Aus ATC (RADAR)
Thu 11:02:11 PM -17.2598 143.4875 74° East 260 299 20,900  Level Aus ATC (RADAR)
Thu 11:02:51 PM -17.2475 143.5370 75° East 263 303 20,900  Level Aus ATC (RADAR)
Thu 11:03:26 PM -17.2354 143.5791 73° East 259 298 20,900  Level Aus ATC (RADAR)
Thu 11:04:16 PM -17.2187 143.6395 74° East 261 300 20,900  Level Aus ATC (RADAR)
Thu 11:04:36 PM -17.2126 143.6642 76° East 263 303 20,900  Level Aus ATC (RADAR)
Thu 11:05:11 PM -17.2016 143.7068 75° East 259 298 20,900  Level Aus ATC (RADAR)
Thu 11:06:21 PM -17.1786 143.7920 74° East 260 299 20,900  Level Aus ATC (RADAR)
Thu 11:06:40 PM -17.1722 143.8165 75° East 263 303 20,900  Level Aus ATC (RADAR)
Thu 11:07:15 PM -17.1603 143.8589 74° East 261 300 20,900  Level Aus ATC (RADAR)
Thu 11:07:55 PM -17.1472 143.9076 74° East 263 303 20,900  Level Aus ATC (RADAR)
Thu 11:08:35 PM -17.1342 143.9564 74° East 262 302 20,900  Level Aus ATC (RADAR)
Thu 11:09:31 PM -17.1163 144.0229 74° East 260 299 20,900  Level Aus ATC (RADAR)
Thu 11:09:51 PM -17.1101 144.0475 75° East 262 302 20,900  Level Aus ATC (RADAR)
Thu 11:10:26 PM -17.0983 144.0897 74° East 260 299 20,900  Level Aus ATC (RADAR)
Thu 11:11:57 PM -17.0675 144.1988 74° East 261 300 20,900  Level Aus ATC (RADAR)
Thu 11:12:16 PM -17.0610 144.2231 74° East 261 300 20,900  Level Aus ATC (RADAR)
Thu 11:13:21 PM -17.0397 144.3011 74° East 257 296 20,900  Level Aus ATC (RADAR)
Thu 11:14:01 PM -17.0268 144.3495 74° East 259 298 20,900  Level Aus ATC (RADAR)
Thu 11:15:01 PM -17.0075 144.4220 74° East 258 297 20,900  Level Aus ATC (RADAR)
Thu 11:15:40 PM -16.9934 144.4702 73° East 259 298 20,900  Level Aus ATC (RADAR)
Thu 11:17:30 PM -16.9583 144.6022 74° East 258 297 20,900  Level Aus ATC (RADAR)
Thu 11:18:15 PM -16.9431 144.6555 73° East 255 293 20,900  Level Aus ATC (RADAR)
Thu 11:18:34 PM -16.9367 144.6792 74° East 254 292 20,900  Level Aus ATC (RADAR)
Thu 11:19:09 PM -16.9254 144.7208 74° East 255 293 20,900  Level Aus ATC (RADAR)
Thu 11:19:54 PM -16.9105 144.7739 74° East 254 292 20,900  Level Aus ATC (RADAR)
Thu 11:20:29 PM -16.8991 144.8155 74° East 254 292 20,900 -783 Level Aus ATC (RADAR)
Thu 11:21:49 PM -16.8702 144.9163 73° East 289 333 19,400 -1,260 Descending Aus ATC (RADAR)
Thu 11:22:09 PM -16.8629 144.9456 75° East 303 349 18,800 -1,855 Descending Aus ATC (RADAR)
Thu 11:22:44 PM -16.8491 144.9981 75° East 319 367 17,700 -1,875 Descending Aus ATC (RADAR)
Thu 11:23:29 PM -16.8310 145.0646 74° East 317 365 16,300 -1,800 Descending Aus ATC (RADAR)
Thu 11:24:04 PM -16.8168 145.1152 74° East 311 358 15,300 -1,680 Descending Aus ATC (RADAR)
Thu 11:25:09 PM -16.7924 145.2052 74° East 294 338 13,500 -1,694 Descending Aus ATC (RADAR)
Thu 11:25:29 PM -16.7849 145.2319 74° East 290 334 12,900 -1,694 Descending Aus ATC (RADAR)
Thu 11:26:34 PM -16.7601 145.3207 74° East 296 341 11,100 -1,600 Descending Aus ATC (RADAR)
Thu 11:27:14 PM -16.7455 145.3751 74° East 287 330 10,100 -1,569 Descending Aus ATC (RADAR)
Thu 11:27:39 PM -16.7369 145.4069 74° East 275 316 9,400 -1,424 Descending Aus ATC (RADAR)
Thu 11:28:13 PM -16.7253 145.4477 74° East 251 289 8,700 -1,215 Descending Aus ATC (RADAR)
Thu 11:28:58 PM -16.7114 145.4954 73° East 226 260 7,800 -1,200 Descending Aus ATC (RADAR)
Thu 11:29:28 PM -16.7027 145.5257 73° East 219 252 7,200 -1,200 Descending Aus ATC (RADAR)
Thu 11:30:28 PM -16.6634 145.5722 49° Northeast 211 243 6,000 -1,120 Descending Aus ATC (RADAR)
Thu 11:30:43 PM -16.6534 145.5837 48° Northeast 211 243 5,800 -923 Descending Aus ATC (RADAR)
Thu 11:31:33 PM -16.6313 145.6276 62° Northeast 202 232 5,000 -1,067 Descending Aus ATC (RADAR)
Thu 11:32:13 PM -16.6609 145.6517 142° Southeast 199 229 4,200 -1,125 Descending Aus ATC (RADAR)
Thu 11:32:53 PM -16.6952 145.6655 159° South 198 228 3,500 -1,000 Descending Aus ATC (RADAR)
Thu 11:33:43 PM -16.7362 145.6842 156° South 194 223 2,700 -923 Descending Aus ATC (RADAR)
Thu 11:33:58 PM -16.7483 145.6893 158° South 192 221 2,500 -1,091 Descending Aus ATC (RADAR)
Thu 11:34:38 PM -16.7794 145.7039 156° South 185 213 1,700 -975 Descending Aus ATC (RADAR)
Thu 11:35:18 PM -16.8072 145.7172 155° Southeast 167 192 1,200 -675 Descending Aus ATC (RADAR)
Thu 11:35:58 PM -16.8281 145.7265 157° South 123 142 800 -540 Descending Aus ATC (RADAR)
Thu 11:36:58 PM -16.8555 145.7392 156° South 108 124 300 -560 Descending Aus ATC (RADAR)
Thu 11:37:13 PM -16.8618 145.7421 156° South 102 117 100 -800 Descending Aus ATC (RADAR)
Thu 11:37:43 PM -16.8745 145.7474 158° South 98 113 -200 Descending Aus ATC (RADAR)

Login

Don't have an account? Register now (free) for customized features, flight alerts, and more!